sensor_id;sensor_type;location;lat;lon;timestamp;temperature;humidity
19279;DHT22;9773;47.062;15.446;2023-11-19T00:00:42;4.90;99.10
19279;DHT22;9773;47.062;15.446;2023-11-19T00:03:08;4.90;98.70
19279;DHT22;9773;47.062;15.446;2023-11-19T00:05:34;4.90;98.90
19279;DHT22;9773;47.062;15.446;2023-11-19T00:08:00;4.90;99.00
19279;DHT22;9773;47.062;15.446;2023-11-19T00:10:26;4.90;98.90
19279;DHT22;9773;47.062;15.446;2023-11-19T00:12:51;4.80;99.30
19279;DHT22;9773;47.062;15.446;2023-11-19T00:15:18;4.80;99.20
19279;DHT22;9773;47.062;15.446;2023-11-19T00:17:47;4.90;98.80
19279;DHT22;9773;47.062;15.446;2023-11-19T00:20:17;5.00;98.60
19279;DHT22;9773;47.062;15.446;2023-11-19T00:22:44;5.00;98.30
19279;DHT22;9773;47.062;15.446;2023-11-19T00:25:12;5.00;98.40
19279;DHT22;9773;47.062;15.446;2023-11-19T00:27:38;4.90;98.50
19279;DHT22;9773;47.062;15.446;2023-11-19T00:30:05;5.00;98.60
19279;DHT22;9773;47.062;15.446;2023-11-19T00:32:34;4.90;98.50
19279;DHT22;9773;47.062;15.446;2023-11-19T00:35:01;4.90;98.90
19279;DHT22;9773;47.062;15.446;2023-11-19T00:37:28;4.90;99.00
19279;DHT22;9773;47.062;15.446;2023-11-19T00:39:54;4.80;98.70
19279;DHT22;9773;47.062;15.446;2023-11-19T00:42:22;5.80;99.40
19279;DHT22;9773;47.062;15.446;2023-11-19T00:44:48;4.90;98.40
19279;DHT22;9773;47.062;15.446;2023-11-19T00:47:14;4.80;98.90
19279;DHT22;9773;47.062;15.446;2023-11-19T00:49:40;4.80;99.20
19279;DHT22;9773;47.062;15.446;2023-11-19T00:52:05;4.80;99.60
19279;DHT22;9773;47.062;15.446;2023-11-19T00:54:32;4.70;99.00
19279;DHT22;9773;47.062;15.446;2023-11-19T00:56:58;4.90;99.10
19279;DHT22;9773;47.062;15.446;2023-11-19T00:59:23;5.00;98.70
19279;DHT22;9773;47.062;15.446;2023-11-19T01:01:49;5.00;98.80
19279;DHT22;9773;47.062;15.446;2023-11-19T01:04:16;5.00;98.70
19279;DHT22;9773;47.062;15.446;2023-11-19T01:06:42;5.00;98.60
19279;DHT22;9773;47.062;15.446;2023-11-19T01:09:09;5.00;98.70
19279;DHT22;9773;47.062;15.446;2023-11-19T01:11:35;5.00;98.80
19279;DHT22;9773;47.062;15.446;2023-11-19T01:14:01;5.00;98.70
19279;DHT22;9773;47.062;15.446;2023-11-19T01:16:27;4.90;98.20
19279;DHT22;9773;47.062;15.446;2023-11-19T01:18:53;4.90;98.60
19279;DHT22;9773;47.062;15.446;2023-11-19T01:21:20;5.00;98.60
19279;DHT22;9773;47.062;15.446;2023-11-19T01:23:45;5.00;98.20
19279;DHT22;9773;47.062;15.446;2023-11-19T01:26:12;5.00;98.70
19279;DHT22;9773;47.062;15.446;2023-11-19T01:28:41;5.00;98.40
19279;DHT22;9773;47.062;15.446;2023-11-19T01:31:11;5.00;98.40
19279;DHT22;9773;47.062;15.446;2023-11-19T01:33:36;5.00;98.60
19279;DHT22;9773;47.062;15.446;2023-11-19T01:36:03;5.00;98.70
19279;DHT22;9773;47.062;15.446;2023-11-19T01:38:29;5.00;98.60
19279;DHT22;9773;47.062;15.446;2023-11-19T01:40:59;4.90;98.80
19279;DHT22;9773;47.062;15.446;2023-11-19T01:43:38;4.80;99.10
19279;DHT22;9773;47.062;15.446;2023-11-19T01:46:05;4.70;99.00
19279;DHT22;9773;47.062;15.446;2023-11-19T01:48:34;4.70;99.20
19279;DHT22;9773;47.062;15.446;2023-11-19T01:51:05;4.60;99.20
19279;DHT22;9773;47.062;15.446;2023-11-19T01:53:34;4.60;99.50
19279;DHT22;9773;47.062;15.446;2023-11-19T01:56:00;4.50;99.60
19279;DHT22;9773;47.062;15.446;2023-11-19T01:58:26;4.50;99.90
19279;DHT22;9773;47.062;15.446;2023-11-19T02:00:54;4.50;99.80
19279;DHT22;9773;47.062;15.446;2023-11-19T02:03:21;4.50;99.90
19279;DHT22;9773;47.062;15.446;2023-11-19T02:05:48;4.40;99.90
19279;DHT22;9773;47.062;15.446;2023-11-19T02:08:15;4.40;99.90
19279;DHT22;9773;47.062;15.446;2023-11-19T02:10:40;4.40;99.90
19279;DHT22;9773;47.062;15.446;2023-11-19T02:13:06;4.50;99.90
19279;DHT22;9773;47.062;15.446;2023-11-19T02:15:33;4.30;99.90
19279;DHT22;9773;47.062;15.446;2023-11-19T02:18:21;4.30;99.90
19279;DHT22;9773;47.062;15.446;2023-11-19T02:20:48;4.40;99.90
19279;DHT22;9773;47.062;15.446;2023-11-19T02:23:15;4.30;99.90
19279;DHT22;9773;47.062;15.446;2023-11-19T02:25:41;4.30;99.90
19279;DHT22;9773;47.062;15.446;2023-11-19T02:28:08;4.20;99.90
19279;DHT22;9773;47.062;15.446;2023-11-19T02:30:37;4.10;99.90
19279;DHT22;9773;47.062;15.446;2023-11-19T02:33:03;4.00;99.90
19279;DHT22;9773;47.062;15.446;2023-11-19T02:35:32;3.90;99.90
19279;DHT22;9773;47.062;15.446;2023-11-19T02:37:58;3.90;99.90
19279;DHT22;9773;47.062;15.446;2023-11-19T02:40:26;3.80;99.90
19279;DHT22;9773;47.062;15.446;2023-11-19T02:42:53;3.90;99.90
19279;DHT22;9773;47.062;15.446;2023-11-19T02:45:21;3.80;99.90
19279;DHT22;9773;47.062;15.446;2023-11-19T02:47:47;3.80;99.90
19279;DHT22;9773;47.062;15.446;2023-11-19T02:50:13;3.80;99.90
19279;DHT22;9773;47.062;15.446;2023-11-19T02:52:44;3.80;99.90
19279;DHT22;9773;47.062;15.446;2023-11-19T02:55:11;3.90;99.90
19279;DHT22;9773;47.062;15.446;2023-11-19T02:57:41;3.90;99.90
19279;DHT22;9773;47.062;15.446;2023-11-19T03:00:16;3.90;99.90
19279;DHT22;9773;47.062;15.446;2023-11-19T03:02:43;4.00;99.90
19279;DHT22;9773;47.062;15.446;2023-11-19T03:05:29;3.90;99.90
19279;DHT22;9773;47.062;15.446;2023-11-19T03:07:55;3.80;99.90
19279;DHT22;9773;47.062;15.446;2023-11-19T03:10:22;3.70;99.90
19279;DHT22;9773;47.062;15.446;2023-11-19T03:12:47;3.60;99.90
19279;DHT22;9773;47.062;15.446;2023-11-19T03:15:13;3.60;99.90
19279;DHT22;9773;47.062;15.446;2023-11-19T03:17:42;3.80;99.90
19279;DHT22;9773;47.062;15.446;2023-11-19T03:20:10;3.70;99.90
19279;DHT22;9773;47.062;15.446;2023-11-19T03:22:41;3.60;99.90
19279;DHT22;9773;47.062;15.446;2023-11-19T03:25:07;3.90;99.90
19279;DHT22;9773;47.062;15.446;2023-11-19T03:27:35;3.70;99.90
19279;DHT22;9773;47.062;15.446;2023-11-19T03:30:08;3.70;99.90
19279;DHT22;9773;47.062;15.446;2023-11-19T03:32:36;3.80;99.90
19279;DHT22;9773;47.062;15.446;2023-11-19T03:35:02;3.70;99.90
19279;DHT22;9773;47.062;15.446;2023-11-19T03:37:30;3.50;99.90
19279;DHT22;9773;47.062;15.446;2023-11-19T03:39:56;3.70;99.90
19279;DHT22;9773;47.062;15.446;2023-11-19T03:42:25;3.70;99.90
19279;DHT22;9773;47.062;15.446;2023-11-19T03:44:53;4.00;99.90
19279;DHT22;9773;47.062;15.446;2023-11-19T03:47:19;3.70;99.90
19279;DHT22;9773;47.062;15.446;2023-11-19T03:49:52;4.50;99.90
19279;DHT22;9773;47.062;15.446;2023-11-19T03:52:18;3.70;99.90
19279;DHT22;9773;47.062;15.446;2023-11-19T03:54:44;3.70;99.90
19279;DHT22;9773;47.062;15.446;2023-11-19T03:57:12;3.70;99.90
19279;DHT22;9773;47.062;15.446;2023-11-19T03:59:37;4.00;99.90
19279;DHT22;9773;47.062;15.446;2023-11-19T04:02:03;3.90;99.90
19279;DHT22;9773;47.062;15.446;2023-11-19T04:04:29;4.00;99.90
19279;DHT22;9773;47.062;15.446;2023-11-19T04:06:55;3.90;99.90
19279;DHT22;9773;47.062;15.446;2023-11-19T04:09:21;3.90;99.90
19279;DHT22;9773;47.062;15.446;2023-11-19T04:11:47;3.90;99.90
19279;DHT22;9773;47.062;15.446;2023-11-19T04:14:14;4.00;99.90
19279;DHT22;9773;47.062;15.446;2023-11-19T04:16:41;4.00;99.90
19279;DHT22;9773;47.062;15.446;2023-11-19T04:19:07;4.00;99.90
19279;DHT22;9773;47.062;15.446;2023-11-19T04:21:33;3.90;99.90
19279;DHT22;9773;47.062;15.446;2023-11-19T04:23:59;3.90;99.90
19279;DHT22;9773;47.062;15.446;2023-11-19T04:26:25;4.00;99.90
19279;DHT22;9773;47.062;15.446;2023-11-19T04:28:51;4.20;99.90
19279;DHT22;9773;47.062;15.446;2023-11-19T04:31:16;4.10;99.90
19279;DHT22;9773;47.062;15.446;2023-11-19T04:33:43;3.90;99.90
19279;DHT22;9773;47.062;15.446;2023-11-19T04:36:10;3.90;99.90
19279;DHT22;9773;47.062;15.446;2023-11-19T04:38:35;3.80;99.90
19279;DHT22;9773;47.062;15.446;2023-11-19T04:41:04;3.80;99.90
19279;DHT22;9773;47.062;15.446;2023-11-19T04:43:31;3.70;99.90
19279;DHT22;9773;47.062;15.446;2023-11-19T04:45:57;3.80;99.90
19279;DHT22;9773;47.062;15.446;2023-11-19T04:48:23;3.80;99.90
19279;DHT22;9773;47.062;15.446;2023-11-19T04:50:49;3.80;99.90
19279;DHT22;9773;47.062;15.446;2023-11-19T04:53:17;3.90;99.90
19279;DHT22;9773;47.062;15.446;2023-11-19T04:55:43;3.90;99.90
19279;DHT22;9773;47.062;15.446;2023-11-19T04:58:09;3.90;99.90
19279;DHT22;9773;47.062;15.446;2023-11-19T05:00:35;4.00;99.90
19279;DHT22;9773;47.062;15.446;2023-11-19T05:03:00;4.20;99.90
19279;DHT22;9773;47.062;15.446;2023-11-19T05:05:27;4.00;99.90
19279;DHT22;9773;47.062;15.446;2023-11-19T05:07:52;4.00;99.90
19279;DHT22;9773;47.062;15.446;2023-11-19T05:10:18;4.00;99.90
19279;DHT22;9773;47.062;15.446;2023-11-19T05:12:44;4.00;99.90
19279;DHT22;9773;47.062;15.446;2023-11-19T05:15:10;3.90;99.90
19279;DHT22;9773;47.062;15.446;2023-11-19T05:17:37;3.90;99.90
19279;DHT22;9773;47.062;15.446;2023-11-19T05:20:03;4.00;99.90
19279;DHT22;9773;47.062;15.446;2023-11-19T05:22:29;4.00;99.90
19279;DHT22;9773;47.062;15.446;2023-11-19T05:24:56;4.00;99.90
19279;DHT22;9773;47.062;15.446;2023-11-19T05:27:22;4.00;99.90
19279;DHT22;9773;47.062;15.446;2023-11-19T05:29:49;4.00;99.90
19279;DHT22;9773;47.062;15.446;2023-11-19T05:32:14;3.90;99.90
19279;DHT22;9773;47.062;15.446;2023-11-19T05:34:40;3.90;99.90
19279;DHT22;9773;47.062;15.446;2023-11-19T05:37:06;4.40;99.90
19279;DHT22;9773;47.062;15.446;2023-11-19T05:39:32;3.80;99.90
19279;DHT22;9773;47.062;15.446;2023-11-19T05:41:59;3.80;99.90
19279;DHT22;9773;47.062;15.446;2023-11-19T05:44:25;3.80;99.90
19279;DHT22;9773;47.062;15.446;2023-11-19T05:46:50;3.80;99.90
19279;DHT22;9773;47.062;15.446;2023-11-19T05:49:16;3.80;99.90
19279;DHT22;9773;47.062;15.446;2023-11-19T05:51:42;3.80;99.90
19279;DHT22;9773;47.062;15.446;2023-11-19T05:54:08;3.80;99.90
19279;DHT22;9773;47.062;15.446;2023-11-19T05:56:35;3.90;99.90
19279;DHT22;9773;47.062;15.446;2023-11-19T05:59:01;3.80;99.90
19279;DHT22;9773;47.062;15.446;2023-11-19T06:01:29;3.90;99.90
19279;DHT22;9773;47.062;15.446;2023-11-19T06:03:55;3.90;99.90
19279;DHT22;9773;47.062;15.446;2023-11-19T06:06:21;3.90;99.90
19279;DHT22;9773;47.062;15.446;2023-11-19T06:08:46;4.00;99.90
19279;DHT22;9773;47.062;15.446;2023-11-19T06:11:12;4.10;99.90
19279;DHT22;9773;47.062;15.446;2023-11-19T06:13:44;4.20;99.90
19279;DHT22;9773;47.062;15.446;2023-11-19T06:16:10;4.10;99.90
19279;DHT22;9773;47.062;15.446;2023-11-19T06:18:38;4.10;99.90
19279;DHT22;9773;47.062;15.446;2023-11-19T06:21:06;4.10;99.90
19279;DHT22;9773;47.062;15.446;2023-11-19T06:23:31;4.10;99.90
19279;DHT22;9773;47.062;15.446;2023-11-19T06:25:57;4.10;99.90
19279;DHT22;9773;47.062;15.446;2023-11-19T06:28:23;4.10;99.90
19279;DHT22;9773;47.062;15.446;2023-11-19T06:30:48;4.10;99.90
19279;DHT22;9773;47.062;15.446;2023-11-19T06:33:14;4.20;99.90
19279;DHT22;9773;47.062;15.446;2023-11-19T06:35:40;4.10;99.90
19279;DHT22;9773;47.062;15.446;2023-11-19T06:38:06;4.10;99.90
19279;DHT22;9773;47.062;15.446;2023-11-19T06:40:32;4.00;99.90
19279;DHT22;9773;47.062;15.446;2023-11-19T06:42:59;4.00;99.90
19279;DHT22;9773;47.062;15.446;2023-11-19T06:45:25;4.20;99.90
19279;DHT22;9773;47.062;15.446;2023-11-19T06:47:51;4.10;99.90
19279;DHT22;9773;47.062;15.446;2023-11-19T06:50:16;4.20;99.90
19279;DHT22;9773;47.062;15.446;2023-11-19T06:52:44;4.30;99.90
19279;DHT22;9773;47.062;15.446;2023-11-19T06:55:11;4.20;99.90
19279;DHT22;9773;47.062;15.446;2023-11-19T06:57:36;4.10;99.90
19279;DHT22;9773;47.062;15.446;2023-11-19T07:00:02;4.30;99.90
19279;DHT22;9773;47.062;15.446;2023-11-19T07:02:31;4.50;99.90
19279;DHT22;9773;47.062;15.446;2023-11-19T07:04:56;4.30;99.90
19279;DHT22;9773;47.062;15.446;2023-11-19T07:07:22;4.20;99.90
19279;DHT22;9773;47.062;15.446;2023-11-19T07:09:48;4.10;99.90
19279;DHT22;9773;47.062;15.446;2023-11-19T07:12:14;4.10;99.90
19279;DHT22;9773;47.062;15.446;2023-11-19T07:14:40;4.40;99.90
19279;DHT22;9773;47.062;15.446;2023-11-19T07:17:07;4.30;99.90
19279;DHT22;9773;47.062;15.446;2023-11-19T07:19:34;4.00;99.90
19279;DHT22;9773;47.062;15.446;2023-11-19T07:22:02;4.00;99.90
19279;DHT22;9773;47.062;15.446;2023-11-19T07:24:27;4.00;99.90
19279;DHT22;9773;47.062;15.446;2023-11-19T07:26:54;4.00;99.90
19279;DHT22;9773;47.062;15.446;2023-11-19T07:29:20;4.20;99.90
19279;DHT22;9773;47.062;15.446;2023-11-19T07:31:54;4.30;99.90
19279;DHT22;9773;47.062;15.446;2023-11-19T07:34:21;4.40;99.90
19279;DHT22;9773;47.062;15.446;2023-11-19T07:36:47;4.50;99.90
19279;DHT22;9773;47.062;15.446;2023-11-19T07:39:13;4.50;99.90
19279;DHT22;9773;47.062;15.446;2023-11-19T07:41:38;4.70;99.90
19279;DHT22;9773;47.062;15.446;2023-11-19T07:44:04;4.70;99.90
19279;DHT22;9773;47.062;15.446;2023-11-19T07:46:30;4.80;99.90
19279;DHT22;9773;47.062;15.446;2023-11-19T07:48:57;4.80;99.90
19279;DHT22;9773;47.062;15.446;2023-11-19T07:51:23;4.70;99.90
19279;DHT22;9773;47.062;15.446;2023-11-19T07:53:49;4.70;99.90
19279;DHT22;9773;47.062;15.446;2023-11-19T07:56:15;4.40;99.90
19279;DHT22;9773;47.062;15.446;2023-11-19T07:58:41;4.30;99.90
19279;DHT22;9773;47.062;15.446;2023-11-19T08:01:07;4.30;99.90
19279;DHT22;9773;47.062;15.446;2023-11-19T08:03:33;4.40;99.90
19279;DHT22;9773;47.062;15.446;2023-11-19T08:06:02;4.40;99.90
19279;DHT22;9773;47.062;15.446;2023-11-19T08:08:27;4.40;99.90
19279;DHT22;9773;47.062;15.446;2023-11-19T08:10:59;4.30;99.90
19279;DHT22;9773;47.062;15.446;2023-11-19T08:13:25;4.20;99.90
19279;DHT22;9773;47.062;15.446;2023-11-19T08:15:51;4.40;99.90
19279;DHT22;9773;47.062;15.446;2023-11-19T08:18:17;4.50;99.90
19279;DHT22;9773;47.062;15.446;2023-11-19T08:20:44;4.50;99.90
19279;DHT22;9773;47.062;15.446;2023-11-19T08:23:10;4.50;99.90
19279;DHT22;9773;47.062;15.446;2023-11-19T08:25:36;4.50;99.90
19279;DHT22;9773;47.062;15.446;2023-11-19T08:28:02;4.60;99.90
19279;DHT22;9773;47.062;15.446;2023-11-19T08:30:29;4.40;99.90
19279;DHT22;9773;47.062;15.446;2023-11-19T08:32:55;4.40;99.90
19279;DHT22;9773;47.062;15.446;2023-11-19T08:35:21;4.50;99.90
19279;DHT22;9773;47.062;15.446;2023-11-19T08:37:47;4.70;99.90
19279;DHT22;9773;47.062;15.446;2023-11-19T08:40:13;4.80;99.90
19279;DHT22;9773;47.062;15.446;2023-11-19T08:42:42;5.00;99.90
19279;DHT22;9773;47.062;15.446;2023-11-19T08:45:09;4.80;99.90
19279;DHT22;9773;47.062;15.446;2023-11-19T08:47:36;4.90;99.90
19279;DHT22;9773;47.062;15.446;2023-11-19T08:50:02;4.80;99.90
19279;DHT22;9773;47.062;15.446;2023-11-19T08:52:30;4.70;99.90
19279;DHT22;9773;47.062;15.446;2023-11-19T08:54:55;4.60;99.90
19279;DHT22;9773;47.062;15.446;2023-11-19T08:57:21;4.60;99.90
19279;DHT22;9773;47.062;15.446;2023-11-19T08:59:47;4.60;99.90
19279;DHT22;9773;47.062;15.446;2023-11-19T09:02:13;4.50;99.90
19279;DHT22;9773;47.062;15.446;2023-11-19T09:04:38;4.50;99.90
19279;DHT22;9773;47.062;15.446;2023-11-19T09:07:04;4.60;99.90
19279;DHT22;9773;47.062;15.446;2023-11-19T09:09:30;4.80;99.90
19279;DHT22;9773;47.062;15.446;2023-11-19T09:11:56;5.00;99.90
19279;DHT22;9773;47.062;15.446;2023-11-19T09:14:21;5.00;99.90
19279;DHT22;9773;47.062;15.446;2023-11-19T09:16:52;5.20;99.90
19279;DHT22;9773;47.062;15.446;2023-11-19T09:19:18;5.20;99.90
19279;DHT22;9773;47.062;15.446;2023-11-19T09:21:44;5.20;99.90
19279;DHT22;9773;47.062;15.446;2023-11-19T09:24:09;5.30;99.90
19279;DHT22;9773;47.062;15.446;2023-11-19T09:26:35;5.30;99.90
19279;DHT22;9773;47.062;15.446;2023-11-19T09:29:02;5.50;99.90
19279;DHT22;9773;47.062;15.446;2023-11-19T09:31:28;5.70;99.90
19279;DHT22;9773;47.062;15.446;2023-11-19T09:33:53;5.70;99.90
19279;DHT22;9773;47.062;15.446;2023-11-19T09:36:19;5.70;99.90
19279;DHT22;9773;47.062;15.446;2023-11-19T09:38:45;5.60;99.90
19279;DHT22;9773;47.062;15.446;2023-11-19T09:41:11;5.70;99.90
19279;DHT22;9773;47.062;15.446;2023-11-19T09:43:42;5.80;99.90
19279;DHT22;9773;47.062;15.446;2023-11-19T09:46:12;5.80;99.90
19279;DHT22;9773;47.062;15.446;2023-11-19T09:48:39;5.80;99.90
19279;DHT22;9773;47.062;15.446;2023-11-19T09:51:09;5.60;99.90
19279;DHT22;9773;47.062;15.446;2023-11-19T09:53:36;5.80;99.90
19279;DHT22;9773;47.062;15.446;2023-11-19T09:56:05;5.90;99.90
19279;DHT22;9773;47.062;15.446;2023-11-19T09:58:32;6.00;99.90
19279;DHT22;9773;47.062;15.446;2023-11-19T10:00:58;5.90;99.90
19279;DHT22;9773;47.062;15.446;2023-11-19T10:03:29;5.80;99.90
19279;DHT22;9773;47.062;15.446;2023-11-19T10:05:58;5.90;99.90
19279;DHT22;9773;47.062;15.446;2023-11-19T10:08:24;5.90;99.90
19279;DHT22;9773;47.062;15.446;2023-11-19T10:10:50;6.00;99.90
19279;DHT22;9773;47.062;15.446;2023-11-19T10:13:17;6.10;99.90
19279;DHT22;9773;47.062;15.446;2023-11-19T10:15:44;6.20;99.90
19279;DHT22;9773;47.062;15.446;2023-11-19T10:18:09;6.30;99.90
19279;DHT22;9773;47.062;15.446;2023-11-19T10:20:41;6.50;99.90
19279;DHT22;9773;47.062;15.446;2023-11-19T10:23:07;6.70;99.90
19279;DHT22;9773;47.062;15.446;2023-11-19T10:25:33;6.70;99.90
19279;DHT22;9773;47.062;15.446;2023-11-19T10:28:00;6.70;99.90
19279;DHT22;9773;47.062;15.446;2023-11-19T10:30:27;6.80;99.90
19279;DHT22;9773;47.062;15.446;2023-11-19T10:33:06;6.60;99.90
19279;DHT22;9773;47.062;15.446;2023-11-19T10:35:33;6.60;99.90
19279;DHT22;9773;47.062;15.446;2023-11-19T10:38:00;6.70;99.90
19279;DHT22;9773;47.062;15.446;2023-11-19T10:40:39;6.80;99.90
19279;DHT22;9773;47.062;15.446;2023-11-19T10:43:05;6.70;99.90
19279;DHT22;9773;47.062;15.446;2023-11-19T10:45:34;6.70;99.90
19279;DHT22;9773;47.062;15.446;2023-11-19T10:48:00;6.70;99.90
19279;DHT22;9773;47.062;15.446;2023-11-19T10:50:27;6.80;99.90
19279;DHT22;9773;47.062;15.446;2023-11-19T10:52:57;6.80;99.90
19279;DHT22;9773;47.062;15.446;2023-11-19T10:55:33;6.80;99.90
19279;DHT22;9773;47.062;15.446;2023-11-19T11:03:08;7.00;99.90
19279;DHT22;9773;47.062;15.446;2023-11-19T11:05:37;7.00;99.90
19279;DHT22;9773;47.062;15.446;2023-11-19T11:08:06;6.90;99.90
19279;DHT22;9773;47.062;15.446;2023-11-19T11:10:32;7.00;99.90
19279;DHT22;9773;47.062;15.446;2023-11-19T11:13:03;7.10;99.90
19279;DHT22;9773;47.062;15.446;2023-11-19T11:15:30;7.20;99.90
19279;DHT22;9773;47.062;15.446;2023-11-19T11:18:00;7.20;99.90
19279;DHT22;9773;47.062;15.446;2023-11-19T11:20:32;7.20;99.90
19279;DHT22;9773;47.062;15.446;2023-11-19T11:29:03;7.20;99.90
19279;DHT22;9773;47.062;15.446;2023-11-19T11:39:36;7.30;99.90
19279;DHT22;9773;47.062;15.446;2023-11-19T11:50:18;7.60;99.90
19279;DHT22;9773;47.062;15.446;2023-11-19T11:55:25;7.60;99.90
19279;DHT22;9773;47.062;15.446;2023-11-19T11:57:51;7.60;99.90
19279;DHT22;9773;47.062;15.446;2023-11-19T12:00:26;7.70;99.90
19279;DHT22;9773;47.062;15.446;2023-11-19T12:02:54;7.70;99.90
19279;DHT22;9773;47.062;15.446;2023-11-19T12:05:21;7.70;99.90
19279;DHT22;9773;47.062;15.446;2023-11-19T12:10:24;7.70;99.90
19279;DHT22;9773;47.062;15.446;2023-11-19T12:12:53;7.80;99.90
19279;DHT22;9773;47.062;15.446;2023-11-19T12:15:19;7.80;99.90
19279;DHT22;9773;47.062;15.446;2023-11-19T12:17:50;7.80;99.90
19279;DHT22;9773;47.062;15.446;2023-11-19T12:20:18;7.90;99.90
19279;DHT22;9773;47.062;15.446;2023-11-19T12:22:45;8.00;99.90
19279;DHT22;9773;47.062;15.446;2023-11-19T12:25:12;8.00;99.90
19279;DHT22;9773;47.062;15.446;2023-11-19T12:27:51;8.00;99.90
19279;DHT22;9773;47.062;15.446;2023-11-19T12:30:26;8.00;99.90
19279;DHT22;9773;47.062;15.446;2023-11-19T12:32:54;8.00;99.90
19279;DHT22;9773;47.062;15.446;2023-11-19T12:35:20;8.10;99.90
19279;DHT22;9773;47.062;15.446;2023-11-19T12:37:50;8.20;99.90
19279;DHT22;9773;47.062;15.446;2023-11-19T12:42:46;8.20;99.90
19279;DHT22;9773;47.062;15.446;2023-11-19T12:45:12;8.30;99.90
19279;DHT22;9773;47.062;15.446;2023-11-19T12:47:39;8.30;99.90
19279;DHT22;9773;47.062;15.446;2023-11-19T12:50:07;8.30;99.90
19279;DHT22;9773;47.062;15.446;2023-11-19T12:52:34;8.30;99.90
19279;DHT22;9773;47.062;15.446;2023-11-19T12:55:00;8.40;99.90
19279;DHT22;9773;47.062;15.446;2023-11-19T12:57:42;8.40;99.90
19279;DHT22;9773;47.062;15.446;2023-11-19T13:00:18;8.40;99.90
19279;DHT22;9773;47.062;15.446;2023-11-19T13:02:51;8.50;99.90
19279;DHT22;9773;47.062;15.446;2023-11-19T13:05:25;8.60;99.90
19279;DHT22;9773;47.062;15.446;2023-11-19T13:08:01;8.70;99.90
19279;DHT22;9773;47.062;15.446;2023-11-19T13:10:28;8.60;99.90
19279;DHT22;9773;47.062;15.446;2023-11-19T13:13:08;8.60;99.90
19279;DHT22;9773;47.062;15.446;2023-11-19T13:15:34;8.60;99.90
19279;DHT22;9773;47.062;15.446;2023-11-19T13:18:01;8.60;99.90
19279;DHT22;9773;47.062;15.446;2023-11-19T13:20:27;8.60;99.90
19279;DHT22;9773;47.062;15.446;2023-11-19T13:23:02;8.60;99.90
19279;DHT22;9773;47.062;15.446;2023-11-19T13:25:29;8.60;99.90
19279;DHT22;9773;47.062;15.446;2023-11-19T13:27:55;8.70;99.90
19279;DHT22;9773;47.062;15.446;2023-11-19T13:30:22;7.90;99.90
19279;DHT22;9773;47.062;15.446;2023-11-19T13:32:50;8.70;99.90
19279;DHT22;9773;47.062;15.446;2023-11-19T13:35:17;8.70;99.90
19279;DHT22;9773;47.062;15.446;2023-11-19T13:37:43;8.70;99.90
19279;DHT22;9773;47.062;15.446;2023-11-19T13:40:10;8.70;99.90
19279;DHT22;9773;47.062;15.446;2023-11-19T13:42:41;8.70;99.90
19279;DHT22;9773;47.062;15.446;2023-11-19T13:45:16;8.70;99.90
19279;DHT22;9773;47.062;15.446;2023-11-19T13:47:44;8.70;99.90
19279;DHT22;9773;47.062;15.446;2023-11-19T13:50:14;8.70;99.90
19279;DHT22;9773;47.062;15.446;2023-11-19T13:52:42;8.70;99.90
19279;DHT22;9773;47.062;15.446;2023-11-19T13:55:09;8.70;99.90
19279;DHT22;9773;47.062;15.446;2023-11-19T13:57:39;8.60;99.90
19279;DHT22;9773;47.062;15.446;2023-11-19T14:00:07;8.70;99.90
19279;DHT22;9773;47.062;15.446;2023-11-19T14:02:45;8.70;99.90
19279;DHT22;9773;47.062;15.446;2023-11-19T14:05:12;8.70;99.90
19279;DHT22;9773;47.062;15.446;2023-11-19T14:07:38;8.70;99.90
19279;DHT22;9773;47.062;15.446;2023-11-19T14:10:05;8.70;99.90
19279;DHT22;9773;47.062;15.446;2023-11-19T14:12:32;8.70;99.90
19279;DHT22;9773;47.062;15.446;2023-11-19T14:14:58;8.70;99.90
19279;DHT22;9773;47.062;15.446;2023-11-19T14:17:25;8.70;99.90
19279;DHT22;9773;47.062;15.446;2023-11-19T14:19:51;8.70;99.90
19279;DHT22;9773;47.062;15.446;2023-11-19T14:22:17;8.70;99.90
19279;DHT22;9773;47.062;15.446;2023-11-19T14:24:43;8.70;99.90
19279;DHT22;9773;47.062;15.446;2023-11-19T14:27:09;8.60;99.90
19279;DHT22;9773;47.062;15.446;2023-11-19T14:29:36;8.60;99.90
19279;DHT22;9773;47.062;15.446;2023-11-19T14:32:02;8.60;99.90
19279;DHT22;9773;47.062;15.446;2023-11-19T14:34:29;8.60;99.90
19279;DHT22;9773;47.062;15.446;2023-11-19T14:36:55;8.60;99.90
19279;DHT22;9773;47.062;15.446;2023-11-19T14:39:21;8.50;99.90
19279;DHT22;9773;47.062;15.446;2023-11-19T14:41:47;8.50;99.90
19279;DHT22;9773;47.062;15.446;2023-11-19T14:44:12;8.50;99.90
19279;DHT22;9773;47.062;15.446;2023-11-19T14:46:38;8.50;99.90
19279;DHT22;9773;47.062;15.446;2023-11-19T14:49:04;8.50;99.90
19279;DHT22;9773;47.062;15.446;2023-11-19T14:51:30;8.50;99.90
19279;DHT22;9773;47.062;15.446;2023-11-19T14:53:57;8.50;99.90
19279;DHT22;9773;47.062;15.446;2023-11-19T14:56:23;8.50;99.90
19279;DHT22;9773;47.062;15.446;2023-11-19T14:58:49;8.50;99.90
19279;DHT22;9773;47.062;15.446;2023-11-19T15:01:16;8.50;99.90
19279;DHT22;9773;47.062;15.446;2023-11-19T15:03:44;8.50;99.90
19279;DHT22;9773;47.062;15.446;2023-11-19T15:06:10;8.40;99.90
19279;DHT22;9773;47.062;15.446;2023-11-19T15:08:37;8.50;99.90
19279;DHT22;9773;47.062;15.446;2023-11-19T15:11:03;8.50;99.90
19279;DHT22;9773;47.062;15.446;2023-11-19T15:13:30;8.60;99.90
19279;DHT22;9773;47.062;15.446;2023-11-19T15:15:56;8.50;99.90
19279;DHT22;9773;47.062;15.446;2023-11-19T15:18:22;8.40;99.90
19279;DHT22;9773;47.062;15.446;2023-11-19T15:20:48;8.30;99.90
19279;DHT22;9773;47.062;15.446;2023-11-19T15:23:14;8.30;99.90
19279;DHT22;9773;47.062;15.446;2023-11-19T15:25:41;8.20;99.90
19279;DHT22;9773;47.062;15.446;2023-11-19T15:28:08;8.20;99.90
19279;DHT22;9773;47.062;15.446;2023-11-19T15:30:34;8.10;99.90
19279;DHT22;9773;47.062;15.446;2023-11-19T15:32:59;8.10;99.90
19279;DHT22;9773;47.062;15.446;2023-11-19T15:35:25;8.00;99.90
19279;DHT22;9773;47.062;15.446;2023-11-19T15:37:51;7.90;99.90
19279;DHT22;9773;47.062;15.446;2023-11-19T15:40:18;7.90;99.90
19279;DHT22;9773;47.062;15.446;2023-11-19T15:42:44;7.90;99.90
19279;DHT22;9773;47.062;15.446;2023-11-19T15:45:11;7.90;99.90
19279;DHT22;9773;47.062;15.446;2023-11-19T15:47:39;7.90;99.90
19279;DHT22;9773;47.062;15.446;2023-11-19T15:50:06;7.70;99.90
19279;DHT22;9773;47.062;15.446;2023-11-19T15:52:32;7.70;99.90
19279;DHT22;9773;47.062;15.446;2023-11-19T15:54:58;8.90;99.90
19279;DHT22;9773;47.062;15.446;2023-11-19T15:57:24;7.70;99.90
19279;DHT22;9773;47.062;15.446;2023-11-19T15:59:50;7.70;99.90
19279;DHT22;9773;47.062;15.446;2023-11-19T16:02:17;7.70;99.90
19279;DHT22;9773;47.062;15.446;2023-11-19T16:04:42;7.70;99.90
19279;DHT22;9773;47.062;15.446;2023-11-19T16:07:13;7.70;99.90
19279;DHT22;9773;47.062;15.446;2023-11-19T16:09:39;7.70;99.90
19279;DHT22;9773;47.062;15.446;2023-11-19T16:12:07;7.60;99.90
19279;DHT22;9773;47.062;15.446;2023-11-19T16:14:37;7.00;99.90
19279;DHT22;9773;47.062;15.446;2023-11-19T16:17:03;7.60;99.90
19279;DHT22;9773;47.062;15.446;2023-11-19T16:19:29;7.50;99.90